createdAt,value
2022-09-12T00:04:07.565Z,12.11
2022-09-12T00:09:13.955Z,12.27
2022-09-12T00:14:20.046Z,12.76
2022-09-12T00:19:25.061Z,12.62
2022-09-12T00:24:29.325Z,12.17
2022-09-12T00:29:33.355Z,11.61
2022-09-12T00:34:38.700Z,11.96
2022-09-12T00:39:42.383Z,11.75
2022-09-12T00:44:49.869Z,11.83
2022-09-12T00:49:59.567Z,11.93
2022-09-12T00:55:07.660Z,11.88
2022-09-12T01:00:15.767Z,11.81
2022-09-12T01:05:22.909Z,12.16
2022-09-12T01:10:27.075Z,12.14
2022-09-12T01:15:31.916Z,11.99
2022-09-12T01:20:54.805Z,11.68
2022-09-12T01:26:16.676Z,11.86
2022-09-12T01:31:30.742Z,11.76
2022-09-12T01:36:41.465Z,11.49
2022-09-12T01:41:53.966Z,11.20
2022-09-12T01:47:05.575Z,11.25
2022-09-12T01:52:15.604Z,11.73
2022-09-12T01:57:25.125Z,11.60
2022-09-12T02:02:34.746Z,11.71
2022-09-12T02:07:42.067Z,11.30
2022-09-12T02:12:49.838Z,11.68
2022-09-12T02:17:59.269Z,11.40
2022-09-12T02:23:08.325Z,11.90
2022-09-12T02:28:15.880Z,11.14
2022-09-12T02:33:27.741Z,10.82
2022-09-12T02:38:36.645Z,11.32
2022-09-12T02:43:40.607Z,11.35
2022-09-12T02:48:45.991Z,11.17
2022-09-12T02:53:50.243Z,10.90
2022-09-12T02:58:58.382Z,11.26
2022-09-12T03:04:22.395Z,11.09
2022-09-12T03:09:37.709Z,11.04
2022-09-12T03:15:10.963Z,11.18
2022-09-12T03:20:21.973Z,10.76
2022-09-12T03:25:32.326Z,10.48
2022-09-12T03:30:40.727Z,10.57
2022-09-12T03:35:46.072Z,10.45
2022-09-12T03:40:54.549Z,10.57
2022-09-12T03:45:59.546Z,10.40
2022-09-12T03:51:06.898Z,10.21
2022-09-12T03:56:12.927Z,10.13
2022-09-12T04:01:19.484Z,10.23
2022-09-12T04:06:25.200Z,9.93
2022-09-12T04:11:28.985Z,10.20
2022-09-12T04:16:33.273Z,9.96
2022-09-12T04:21:39.579Z,10.43
2022-09-12T04:26:43.282Z,10.34
2022-09-12T04:31:47.006Z,10.36
2022-09-12T04:36:51.980Z,10.63
2022-09-12T04:41:55.694Z,10.76
2022-09-12T04:46:59.422Z,10.62
2022-09-12T04:52:08.178Z,10.46
2022-09-12T04:57:11.939Z,10.74
2022-09-12T05:02:16.442Z,11.00
2022-09-12T05:07:21.547Z,10.49
2022-09-12T05:12:25.763Z,11.05
2022-09-12T05:17:30.365Z,10.79
2022-09-12T05:22:35.363Z,10.93
2022-09-12T05:27:39.308Z,11.78
2022-09-12T05:32:43.010Z,11.34
2022-09-12T05:37:48.336Z,11.10
2022-09-12T05:42:52.010Z,11.46
2022-09-12T05:47:55.814Z,11.68
2022-09-12T05:53:01.388Z,11.96
2022-09-12T05:58:05.168Z,11.49
2022-09-12T06:03:08.899Z,11.44
2022-09-12T06:08:13.959Z,11.45
2022-09-12T06:13:17.651Z,11.59
2022-09-12T06:18:21.896Z,11.76
2022-09-12T06:23:27.656Z,11.52
2022-09-12T06:28:31.902Z,11.66
2022-09-12T06:33:37.411Z,11.41
2022-09-12T06:38:42.838Z,12.06
2022-09-12T06:43:46.710Z,11.53
2022-09-12T06:48:50.597Z,11.79
2022-09-12T06:53:58.281Z,12.18
2022-09-12T06:59:02.249Z,12.17
2022-09-12T07:04:06.025Z,11.58
2022-09-12T07:09:13.360Z,11.87
2022-09-12T07:14:17.329Z,11.11
2022-09-12T07:19:21.190Z,11.41
2022-09-12T07:24:26.524Z,11.68
2022-09-12T07:29:36.857Z,12.15
2022-09-12T07:34:42.104Z,12.45
2022-09-12T07:39:47.419Z,12.07
2022-09-12T07:44:52.663Z,12.75
2022-09-12T07:49:56.760Z,12.80
2022-09-12T07:55:02.592Z,12.97
2022-09-12T08:00:07.807Z,12.87
2022-09-12T08:05:16.236Z,12.42
2022-09-12T08:10:21.522Z,12.59
2022-09-12T08:15:26.113Z,12.83
2022-09-12T08:20:30.745Z,12.92
2022-09-12T08:25:35.951Z,12.68
2022-09-12T08:30:39.888Z,12.09
2022-09-12T08:35:46.103Z,12.64
2022-09-12T08:40:58.886Z,13.09
2022-09-12T08:46:10.186Z,13.15
2022-09-12T08:51:18.381Z,14.18
2022-09-12T08:56:24.557Z,13.26
2022-09-12T09:01:34.002Z,12.91
2022-09-12T09:06:58.415Z,13.36
2022-09-12T09:12:14.115Z,13.80
2022-09-12T09:17:25.326Z,13.43
2022-09-12T09:22:37.694Z,12.73
2022-09-12T09:27:50.426Z,12.01
2022-09-12T09:32:58.580Z,11.39
2022-09-12T09:38:09.414Z,12.07
2022-09-12T09:43:22.980Z,11.76
2022-09-12T09:48:30.712Z,12.24
2022-09-12T09:53:41.456Z,12.56
2022-09-12T09:58:46.886Z,13.09
2022-09-12T10:03:53.070Z,11.72
2022-09-12T10:09:19.724Z,12.24
2022-09-12T10:14:35.180Z,13.17
2022-09-12T10:19:41.516Z,12.49
2022-09-12T10:24:52.406Z,13.05
2022-09-12T10:30:04.146Z,13.26
2022-09-12T10:35:19.728Z,11.91
2022-09-12T10:40:26.471Z,11.92
2022-09-12T10:45:35.614Z,11.91
2022-09-12T10:50:42.445Z,12.32
2022-09-12T10:56:03.032Z,11.97
2022-09-12T11:01:20.512Z,12.02
2022-09-12T11:06:31.984Z,12.65
2022-09-12T11:11:46.995Z,12.06
2022-09-12T11:17:01.773Z,12.71
2022-09-12T11:22:20.355Z,12.54
2022-09-12T11:27:38.726Z,12.20
2022-09-12T11:33:24.744Z,12.66
2022-09-12T11:38:44.277Z,11.76
2022-09-12T11:43:52.949Z,11.35
2022-09-12T11:49:02.382Z,11.17
2022-09-12T11:54:19.736Z,10.84
2022-09-12T11:59:34.936Z,11.37
2022-09-12T12:04:51.076Z,11.01
2022-09-12T12:09:55.804Z,10.85
2022-09-12T12:15:00.517Z,11.38
2022-09-12T12:20:08.791Z,11.06
2022-09-12T12:25:40.145Z,11.02
2022-09-12T12:31:03.369Z,11.68
2022-09-12T12:36:10.492Z,11.67
2022-09-12T12:41:45.648Z,11.17
2022-09-12T12:47:16.432Z,11.91
2022-09-12T12:52:22.075Z,11.73
2022-09-12T12:57:43.796Z,11.62
2022-09-12T13:02:53.571Z,12.51
2022-09-12T13:15:55.979Z,11.99
2022-09-12T13:21:11.441Z,12.37
2022-09-12T13:26:25.311Z,12.47
2022-09-12T13:31:31.071Z,11.97
2022-09-12T13:36:53.522Z,11.80
2022-09-12T13:42:37.261Z,12.41
2022-09-12T13:47:44.641Z,11.22
2022-09-12T13:52:53.398Z,11.61
2022-09-12T13:57:59.906Z,11.36
2022-09-12T14:03:37.095Z,11.99
2022-09-12T14:08:42.255Z,11.78
2022-09-12T14:13:46.573Z,12.15
2022-09-12T14:18:52.712Z,11.78
2022-09-12T14:23:57.392Z,11.63
2022-09-12T14:29:02.551Z,11.35
2022-09-12T14:34:14.020Z,11.24
2022-09-12T14:39:23.489Z,11.24
2022-09-12T14:44:29.602Z,11.26
2022-09-12T14:49:37.397Z,12.41
2022-09-12T14:54:43.789Z,12.41
2022-09-12T14:59:48.019Z,11.77
2022-09-12T15:04:55.332Z,11.89
2022-09-12T15:10:01.535Z,11.86
2022-09-12T15:15:15.421Z,11.87
2022-09-12T15:20:20.817Z,12.01
2022-09-12T15:25:25.247Z,12.05
2022-09-12T15:30:29.333Z,12.54
2022-09-12T15:35:34.768Z,12.30
2022-09-12T15:40:40.247Z,12.17
2022-09-12T15:45:45.356Z,12.82
2022-09-12T15:50:50.730Z,12.64
2022-09-12T15:55:54.909Z,12.43
2022-09-12T16:01:00.054Z,12.78
2022-09-12T16:06:05.713Z,12.62
2022-09-12T16:11:13.345Z,12.59
2022-09-12T16:16:18.209Z,12.48
2022-09-12T16:21:24.464Z,12.80
2022-09-12T16:26:28.272Z,12.90
2022-09-12T16:31:32.432Z,13.99
2022-09-12T16:36:37.725Z,13.34
2022-09-12T16:41:42.315Z,12.60
2022-09-12T16:46:46.322Z,13.09
2022-09-12T16:51:51.627Z,12.73
2022-09-12T16:56:55.686Z,13.23
2022-09-12T17:02:00.323Z,13.33
2022-09-12T17:07:06.427Z,14.20
2022-09-12T17:12:10.534Z,13.45
2022-09-12T17:17:14.428Z,14.51
2022-09-12T17:22:20.186Z,13.73
2022-09-12T17:27:24.769Z,13.97
2022-09-12T17:32:30.871Z,14.12
2022-09-12T17:37:37.497Z,14.99
2022-09-12T17:42:42.224Z,14.31
2022-09-12T17:47:46.376Z,14.66
2022-09-12T17:52:51.954Z,14.30
2022-09-12T17:57:56.064Z,14.17
2022-09-12T18:03:00.137Z,14.23
2022-09-12T18:08:05.915Z,14.35
2022-09-12T18:13:09.802Z,15.34
2022-09-12T18:18:14.524Z,14.75
2022-09-12T18:23:20.025Z,14.45
2022-09-12T18:28:24.111Z,14.89
2022-09-12T18:33:28.196Z,14.91
2022-09-12T18:38:33.622Z,14.68
2022-09-12T18:43:37.969Z,14.94
2022-09-12T18:48:42.009Z,15.08
2022-09-12T18:53:53.096Z,13.91
2022-09-12T18:58:58.255Z,13.51
2022-09-12T19:04:04.825Z,14.73
2022-09-12T19:09:11.538Z,14.53
2022-09-12T19:14:16.539Z,14.70
2022-09-12T19:19:20.922Z,14.62
2022-09-12T19:24:27.284Z,14.28
2022-09-12T19:29:31.531Z,14.35
2022-09-12T19:34:35.451Z,14.46
2022-09-12T19:39:43.145Z,14.49
2022-09-12T19:44:47.307Z,12.30
2022-09-12T19:49:51.236Z,12.23
2022-09-12T19:54:56.504Z,11.89
2022-09-12T20:00:00.787Z,11.55
2022-09-12T20:05:06.023Z,11.98
2022-09-12T20:10:14.259Z,12.84
2022-09-12T20:15:19.170Z,12.92
2022-09-12T20:20:25.253Z,12.41
2022-09-12T20:25:33.135Z,13.32
2022-09-12T20:30:37.166Z,12.07
2022-09-12T20:35:41.083Z,11.98
2022-09-12T20:40:50.627Z,12.57
2022-09-12T20:45:54.387Z,12.58
2022-09-12T20:50:59.829Z,12.52
2022-09-12T20:56:07.059Z,12.75
2022-09-12T21:01:12.421Z,13.57
2022-09-12T21:06:19.065Z,13.52
2022-09-12T21:11:24.286Z,12.78
2022-09-12T21:16:28.457Z,12.49
2022-09-12T21:21:32.670Z,12.04
2022-09-12T21:26:38.292Z,12.29
2022-09-12T21:31:44.074Z,12.42
2022-09-12T21:36:48.314Z,11.68
2022-09-12T21:41:53.545Z,12.28
2022-09-12T21:46:57.800Z,12.69
2022-09-12T21:52:01.743Z,13.19
2022-09-12T21:57:07.291Z,12.25
2022-09-12T22:02:12.530Z,12.59
2022-09-12T22:07:16.391Z,13.14
2022-09-12T22:12:21.656Z,12.63
2022-09-12T22:17:25.518Z,13.42
2022-09-12T22:22:47.011Z,13.29
2022-09-12T22:27:52.665Z,12.21
2022-09-12T22:32:56.561Z,13.61
2022-09-12T22:38:00.414Z,13.33
2022-09-12T22:43:06.743Z,13.82
2022-09-12T22:48:11.225Z,12.62
2022-09-12T22:53:26.311Z,13.00
2022-09-12T22:58:31.849Z,13.12
2022-09-12T23:03:36.479Z,13.36
2022-09-12T23:08:41.609Z,13.55
2022-09-12T23:13:49.436Z,13.68
2022-09-12T23:18:54.581Z,12.86
2022-09-12T23:23:58.640Z,13.38
2022-09-12T23:29:05.732Z,12.00
2022-09-12T23:34:13.195Z,11.61
2022-09-12T23:39:17.181Z,12.59
2022-09-12T23:44:22.610Z,12.90
2022-09-12T23:49:29.210Z,13.76
2022-09-12T23:54:33.708Z,13.11
2022-09-12T23:59:39.320Z,12.76
